Terminal Aerodrome Forecast
Issued by NWS

Home | Current Version | Previous Version | Text Only | Print | Product List | Glossary On
Versions: 1 2 3 4 5 6 7 8 9 10 11 12 13 14 15 16 17 18 19 20 21 22 23 24 25 26 27 28 29 30 31 32 33 34 35 36 37 38 39 40 41 42 43 44 45
000
FTUS43 KDMX 202326
TAFFOD
TAF
KFOD 202326Z 2100/2124 16006KT 4SM BR OVC006
     FM210500 17007KT 2SM -FZDZ BR OVC005
     FM211300 18009KT 3SM -DZ BR OVC006
     FM211700 18013KT 5SM BR OVC010=

USA.gov is the U.S. government's official web portal to all federal, state and local government web resources and services.